sensor_id;sensor_type;location;lat;lon;timestamp;P1;durP1;ratioP1;P2;durP2;ratioP2
25984;SDS011;66753;53.848;10.658;2024-03-23T01:02:25;8.27;;;1.67;;
25984;SDS011;66753;53.848;10.658;2024-03-23T01:17:27;11.90;;;2.23;;
25984;SDS011;66753;53.848;10.658;2024-03-23T01:32:30;14.63;;;3.00;;
25984;SDS011;66753;53.848;10.658;2024-03-23T01:47:32;7.17;;;1.63;;
25984;SDS011;66753;53.848;10.658;2024-03-23T02:02:34;6.73;;;1.27;;
25984;SDS011;66753;53.848;10.658;2024-03-23T02:17:36;10.63;;;1.40;;
25984;SDS011;66753;53.848;10.658;2024-03-23T02:32:37;12.07;;;2.33;;
25984;SDS011;66753;53.848;10.658;2024-03-23T02:47:39;13.33;;;2.53;;
25984;SDS011;66753;53.848;10.658;2024-03-23T03:02:42;10.60;;;1.53;;
25984;SDS011;66753;53.848;10.658;2024-03-23T03:17:44;11.97;;;2.00;;
25984;SDS011;66753;53.848;10.658;2024-03-23T03:32:45;6.17;;;1.40;;
25984;SDS011;66753;53.848;10.658;2024-03-23T03:47:47;12.87;;;1.63;;
25984;SDS011;66753;53.848;10.658;2024-03-23T04:02:48;11.37;;;1.53;;
25984;SDS011;66753;53.848;10.658;2024-03-23T04:17:50;9.97;;;2.17;;
25984;SDS011;66753;53.848;10.658;2024-03-23T04:32:51;10.27;;;1.73;;
25984;SDS011;66753;53.848;10.658;2024-03-23T04:47:52;11.60;;;1.97;;
25984;SDS011;66753;53.848;10.658;2024-03-23T05:02:53;11.23;;;1.93;;
25984;SDS011;66753;53.848;10.658;2024-03-23T05:17:54;11.30;;;1.90;;
25984;SDS011;66753;53.848;10.658;2024-03-23T05:32:55;10.07;;;1.73;;
25984;SDS011;66753;53.848;10.658;2024-03-23T05:47:57;9.60;;;1.90;;
25984;SDS011;66753;53.848;10.658;2024-03-23T06:02:58;10.37;;;1.83;;
25984;SDS011;66753;53.848;10.658;2024-03-23T06:17:59;12.30;;;3.10;;
25984;SDS011;66753;53.848;10.658;2024-03-23T06:33:01;9.20;;;1.90;;
25984;SDS011;66753;53.848;10.658;2024-03-23T06:48:02;10.80;;;1.63;;
25984;SDS011;66753;53.848;10.658;2024-03-23T07:03:04;6.77;;;1.73;;
25984;SDS011;66753;53.848;10.658;2024-03-23T07:18:07;11.50;;;1.90;;
25984;SDS011;66753;53.848;10.658;2024-03-23T07:33:08;7.60;;;1.40;;
25984;SDS011;66753;53.848;10.658;2024-03-23T07:48:09;9.43;;;2.13;;
25984;SDS011;66753;53.848;10.658;2024-03-23T08:03:10;9.80;;;2.13;;
25984;SDS011;66753;53.848;10.658;2024-03-23T08:18:11;6.33;;;1.90;;
25984;SDS011;66753;53.848;10.658;2024-03-23T08:33:15;6.17;;;1.27;;
25984;SDS011;66753;53.848;10.658;2024-03-23T08:48:18;8.33;;;1.43;;
25984;SDS011;66753;53.848;10.658;2024-03-23T09:03:26;7.50;;;1.43;;
25984;SDS011;66753;53.848;10.658;2024-03-23T09:18:27;7.43;;;1.63;;
25984;SDS011;66753;53.848;10.658;2024-03-23T09:33:31;6.63;;;1.10;;
25984;SDS011;66753;53.848;10.658;2024-03-23T09:48:33;4.10;;;1.03;;
25984;SDS011;66753;53.848;10.658;2024-03-23T10:03:42;9.43;;;1.40;;
25984;SDS011;66753;53.848;10.658;2024-03-23T10:18:47;9.63;;;1.30;;
25984;SDS011;66753;53.848;10.658;2024-03-23T10:33:49;4.60;;;1.20;;
25984;SDS011;66753;53.848;10.658;2024-03-23T10:48:50;5.03;;;1.00;;
25984;SDS011;66753;53.848;10.658;2024-03-23T11:03:51;3.60;;;0.87;;
25984;SDS011;66753;53.848;10.658;2024-03-23T11:18:53;2.60;;;0.70;;
25984;SDS011;66753;53.848;10.658;2024-03-23T11:34:02;4.40;;;0.70;;
25984;SDS011;66753;53.848;10.658;2024-03-23T11:49:06;3.90;;;0.67;;
25984;SDS011;66753;53.848;10.658;2024-03-23T12:04:27;3.53;;;0.50;;
25984;SDS011;66753;53.848;10.658;2024-03-23T12:19:30;2.17;;;0.37;;
25984;SDS011;66753;53.848;10.658;2024-03-23T12:34:32;0.80;;;0.20;;
25984;SDS011;66753;53.848;10.658;2024-03-23T12:49:34;4.63;;;0.50;;
25984;SDS011;66753;53.848;10.658;2024-03-23T13:04:36;0.50;;;0.10;;
25984;SDS011;66753;53.848;10.658;2024-03-23T13:19:38;1.80;;;0.20;;
25984;SDS011;66753;53.848;10.658;2024-03-23T13:34:40;1.40;;;0.20;;
25984;SDS011;66753;53.848;10.658;2024-03-23T13:49:42;1.07;;;0.33;;
25984;SDS011;66753;53.848;10.658;2024-03-23T14:04:44;2.30;;;0.50;;
25984;SDS011;66753;53.848;10.658;2024-03-23T14:19:45;4.93;;;0.50;;
25984;SDS011;66753;53.848;10.658;2024-03-23T14:34:46;0.33;;;0.10;;
25984;SDS011;66753;53.848;10.658;2024-03-23T14:49:48;3.43;;;0.70;;
25984;SDS011;66753;53.848;10.658;2024-03-23T15:04:53;2.80;;;0.40;;
25984;SDS011;66753;53.848;10.658;2024-03-23T15:19:55;2.00;;;0.33;;
25984;SDS011;66753;53.848;10.658;2024-03-23T15:34:57;1.23;;;0.37;;
25984;SDS011;66753;53.848;10.658;2024-03-23T15:49:58;4.93;;;0.67;;
25984;SDS011;66753;53.848;10.658;2024-03-23T16:04:59;2.50;;;0.60;;
25984;SDS011;66753;53.848;10.658;2024-03-23T16:20:03;3.40;;;0.70;;
25984;SDS011;66753;53.848;10.658;2024-03-23T16:35:09;2.87;;;0.50;;
25984;SDS011;66753;53.848;10.658;2024-03-23T16:50:10;1.90;;;0.47;;
25984;SDS011;66753;53.848;10.658;2024-03-23T17:05:13;2.03;;;0.50;;
25984;SDS011;66753;53.848;10.658;2024-03-23T17:20:14;1.40;;;0.50;;
25984;SDS011;66753;53.848;10.658;2024-03-23T17:35:16;1.50;;;0.50;;
25984;SDS011;66753;53.848;10.658;2024-03-23T17:50:20;1.90;;;0.60;;
25984;SDS011;66753;53.848;10.658;2024-03-23T18:05:22;3.50;;;0.70;;
25984;SDS011;66753;53.848;10.658;2024-03-23T18:20:24;1.73;;;0.60;;
25984;SDS011;66753;53.848;10.658;2024-03-23T18:35:26;4.13;;;0.83;;
25984;SDS011;66753;53.848;10.658;2024-03-23T18:50:28;2.73;;;0.60;;
25984;SDS011;66753;53.848;10.658;2024-03-23T19:05:30;3.20;;;0.60;;
25984;SDS011;66753;53.848;10.658;2024-03-23T19:20:32;3.53;;;0.90;;
25984;SDS011;66753;53.848;10.658;2024-03-23T19:35:33;4.23;;;0.70;;
25984;SDS011;66753;53.848;10.658;2024-03-23T19:50:35;1.73;;;0.60;;
25984;SDS011;66753;53.848;10.658;2024-03-23T20:05:37;2.97;;;0.70;;
25984;SDS011;66753;53.848;10.658;2024-03-23T20:20:38;1.67;;;0.50;;
25984;SDS011;66753;53.848;10.658;2024-03-23T20:35:47;2.93;;;1.00;;
25984;SDS011;66753;53.848;10.658;2024-03-23T20:50:58;3.40;;;1.13;;
25984;SDS011;66753;53.848;10.658;2024-03-23T21:06:01;2.10;;;0.53;;
25984;SDS011;66753;53.848;10.658;2024-03-23T21:21:04;3.40;;;1.03;;
25984;SDS011;66753;53.848;10.658;2024-03-23T21:36:08;2.63;;;1.03;;
25984;SDS011;66753;53.848;10.658;2024-03-23T21:51:10;3.33;;;1.47;;
25984;SDS011;66753;53.848;10.658;2024-03-23T22:06:11;4.23;;;1.60;;
25984;SDS011;66753;53.848;10.658;2024-03-23T22:21:12;6.87;;;1.77;;
25984;SDS011;66753;53.848;10.658;2024-03-23T22:36:14;5.67;;;1.90;;
25984;SDS011;66753;53.848;10.658;2024-03-23T22:51:16;4.93;;;1.93;;
25984;SDS011;66753;53.848;10.658;2024-03-23T23:06:19;3.40;;;1.30;;
25984;SDS011;66753;53.848;10.658;2024-03-23T23:21:20;5.47;;;1.20;;
25984;SDS011;66753;53.848;10.658;2024-03-23T23:36:23;3.57;;;1.10;;
25984;SDS011;66753;53.848;10.658;2024-03-23T23:51:25;4.80;;;0.70;;
